Kansas City International, MO

8:02 PM CDT on July 22, 2017 (GMT -0500)
Kansas City International | | Change Station
Active Advisory: Severe Thunderstorm Watch

Elev 1024 ft 39.30 °N, 94.71 °W | Updated 9 minutes ago

Partly Cloudy
Partly Cloudy
89 °F
Feels Like 106 °F
N
10
Wind Variable Wind from North

Today
High -- | Low -- °F
--% Chance of Precip.
Yesterday
High -- | Low -- °F
Precip. -- in
Pressure 29.80 in
Visibility 10.0 miles
Clouds Few 7000 ft
Mostly Cloudy 13000 ft
Heat Index 106 °F
Dew Point 80 °F
Humidity 75%
Rainfall 0.00 in
Snow Depth Not available.
6:10 AM 8:39 PM
Waning Crescent, 0% visible
METAR KMCI 230053Z 01009KT 10SM FEW070 BKN130 32/27 A2984 RMK AO2 PRESRR SLP089 T03170267
Pressure 29.80 in
Visibility 10.0 miles
Clouds Few 7000 ft
Mostly Cloudy 13000 ft
Heat Index 106 °F
Dew Point 80 °F
Humidity 75%
Rainfall 0.00 in
Snow Depth Not available.
6:10 AM 8:39 PM
Waning Crescent, 0% visible
METAR KMCI 230053Z 01009KT 10SM FEW070 BKN130 32/27 A2984 RMK AO2 PRESRR SLP089 T03170267

Get Your Daily Forecast Email!

Thanks for signing up!

Be on the lookout for a verification email in your inbox.

You'll start receiving severe weather alerts in your inbox..

×

10-Day Weather Forecast

Almanac

Astronomy

Jul. 22, 2017 Rise Set
Actual Time
Civil Twilight
Nautical Twilight
Astronomical Twilight
Moon
Length of Visible Light
Length of Day
Tomorrow will be .
, % of the Moon is Illuminated

Today's Extremes

State Highs State Lows

Community

WunderPhotos

Category 6

Welcome to Category 6. This is the collective home for Weather Underground's featured writeups by Dr. Jeff Masters (right), Bob Henson (left), Chris Burt, and other regular contributors.

Nearby

Air Quality

  Air Quality AQ Index Pollutant
Not available.

Snow Depth

Station Depth Elevation

Earthquake Activity

City Distance Mag. Time & Date
Minimum magnitude displayed is 2.5.

Coastal Water Temperatures

Place Temperature

Stations

Nearby Weather Stations

Station Location Temp. Windchill Dew Point Humidity Wind Precip. Elev Updated Type
                   

Watches & Warnings

Severe Thunderstorm Watch
Issued: 7:43 PM CDT Jul. 22, 2017 – National Weather Service

Severe Thunderstorm Watch 433 remains in effect until 100 am CDT

MO
. Missouri counties included are

Adair Buchanan Caldwell
Carroll Chariton Clay
Clinton Daviess DeKalb
Grundy Howard Jackson
Lafayette Linn Livingston
Macon Platte Randolph
ray Saline Sullivan